Terminal Aerodrome Forecast
Issued by NWS

Home | Current Version | Previous Version | Text Only | Print | Product List | Glossary On
Versions: 1 2 3 4 5 6 7 8 9 10 11 12 13 14 15 16 17 18
000
FTUS44 KBMX 281413 AAA
TAFTCL
TAF AMD
KTCL 281413Z 2814/2912 22008KT P6SM VCSH SCT025 BKN040
      TEMPO 2814/2816 BKN025 BKN040
     FM281800 23012G18KT P6SM VCTS BKN040CB
     FM290000 22006KT P6SM SCT030=

USA.gov is the U.S. government's official web portal to all federal, state and local government web resources and services.